createdAt,value
2023-04-09T15:05:37.720Z,7.1
2023-04-09T15:06:31.009Z,11.2
2023-04-09T15:07:30.993Z,11.2
2023-04-09T15:08:31.018Z,11.2
2023-04-09T15:08:55.839Z,11.2
2023-04-09T15:09:31.064Z,11.2
2023-04-09T15:10:31.002Z,11.2
2023-04-09T15:10:36.112Z,11.2
2023-04-09T15:11:31.013Z,11.2
2023-04-09T15:12:31.046Z,11.2
2023-04-09T15:13:31.021Z,11.2
2023-04-09T15:15:42.338Z,11.2
2023-04-09T15:16:30.739Z,11.2
2023-04-09T15:17:31.016Z,11.2
2023-04-09T15:18:31.038Z,11.2
2023-04-09T15:20:30.910Z,11.2
2023-04-09T15:21:31.954Z,11.2
2023-04-09T15:22:33.972Z,11.2
2023-04-09T15:22:45.111Z,11.2
2023-04-09T15:23:36.004Z,11.1
2023-04-09T15:24:37.951Z,11.1
2023-04-09T15:25:52.260Z,11
2023-04-09T15:26:48.637Z,11
2023-04-09T15:27:48.603Z,11
2023-04-09T15:28:50.856Z,11
2023-04-09T15:29:54.749Z,11
2023-04-09T15:30:54.802Z,11
2023-04-09T15:31:41.767Z,10.9
2023-04-09T15:31:44.157Z,10.9
2023-04-09T15:32:19.452Z,10.9
2023-04-09T15:33:50.136Z,10.9
2023-04-09T15:34:17.780Z,10.9
2023-04-09T15:34:46.814Z,10.9
2023-04-09T15:35:28.053Z,10.9
2023-04-09T15:36:06.835Z,11
2023-04-09T15:37:30.636Z,11
2023-04-09T15:37:31.018Z,11
2023-04-09T15:38:49.452Z,11
2023-04-09T15:39:50.268Z,11
2023-04-09T15:40:31.030Z,11
2023-04-09T15:41:31.031Z,11
2023-04-09T15:42:31.008Z,11
2023-04-09T15:43:31.032Z,11
2023-04-09T15:44:16.545Z,11
2023-04-09T15:44:31.028Z,11
2023-04-09T15:44:54.934Z,11
2023-04-09T15:45:31.044Z,11
2023-04-09T15:45:39.679Z,11
2023-04-09T15:46:31.028Z,11
2023-04-09T15:46:36.236Z,11
2023-04-09T15:47:01.497Z,11
2023-04-09T15:47:32.654Z,10.9
2023-04-09T15:48:31.021Z,10.9
2023-04-09T15:49:12.544Z,10.9
2023-04-09T15:50:30.942Z,10.9
2023-04-09T15:51:30.927Z,10.9
2023-04-09T15:52:30.937Z,10.9
2023-04-09T15:53:30.971Z,10.9
2023-04-09T15:54:45.910Z,10.9
2023-04-09T15:55:35.227Z,10.9
2023-04-09T15:56:31.048Z,10.8
2023-04-09T15:57:31.028Z,10.8
2023-04-09T15:59:31.135Z,10.7
2023-04-09T16:00:31.038Z,10.7
2023-04-09T16:03:31.323Z,10.7
2023-04-09T16:03:31.836Z,10.8
2023-04-09T16:04:31.119Z,10.9
2023-04-09T16:05:31.053Z,11
2023-04-09T16:07:31.054Z,11
2023-04-09T16:08:31.043Z,11
2023-04-09T16:09:31.061Z,11
2023-04-09T16:10:31.056Z,10.9
2023-04-09T16:11:05.370Z,10.9
2023-04-09T16:11:31.053Z,10.9
2023-04-09T16:12:09.762Z,10.9
2023-04-09T16:12:31.059Z,10.8
2023-04-09T16:12:49.956Z,10.8
2023-04-09T16:13:31.058Z,10.7
2023-04-09T16:14:32.654Z,10.7
2023-04-09T16:15:15.029Z,10.7
2023-04-09T16:15:48.618Z,10.7
2023-04-09T16:17:04.147Z,10.6
2023-04-09T16:18:07.143Z,10.6
2023-04-09T16:19:05.923Z,10.6
2023-04-09T16:19:44.994Z,10.6
2023-04-09T16:20:08.917Z,10.6
2023-04-09T16:20:31.054Z,10.6
2023-04-09T16:20:55.000Z,10.6
2023-04-09T16:21:50.616Z,10.6
2023-04-09T16:22:56.122Z,10.6
2023-04-09T16:24:04.315Z,10.6
2023-04-09T16:24:49.371Z,10.6
2023-04-09T16:25:26.098Z,10.6
2023-04-09T16:27:04.415Z,10.6
2023-04-09T16:27:46.197Z,10.6
2023-04-09T16:28:46.227Z,10.6
2023-04-09T16:31:29.484Z,10.6
2023-04-09T19:54:10.576Z,5.4
2023-04-09T19:56:48.137Z,5.3
2023-04-09T19:58:31.220Z,5.3
2023-04-09T19:59:54.224Z,5.3
2023-04-09T20:02:09.751Z,5.2
2023-04-09T20:03:31.373Z,5.1
2023-04-09T20:08:46.203Z,4.9
2023-04-09T20:09:48.175Z,4.9
2023-04-09T20:10:50.178Z,4.9
2023-04-09T20:11:52.220Z,4.9
2023-04-09T20:12:54.177Z,4.9
2023-04-09T20:15:10.563Z,4.8
2023-04-09T20:16:00.237Z,4.8
2023-04-09T20:17:02.198Z,4.8
2023-04-09T20:18:04.231Z,4.7
2023-04-09T20:19:07.184Z,4.7
2023-04-09T20:20:10.204Z,4.7
2023-04-09T20:21:12.182Z,4.6
2023-04-09T20:22:14.203Z,4.6
2023-04-09T20:23:16.181Z,4.6
2023-04-09T20:24:18.194Z,4.6
2023-04-09T20:25:20.174Z,4.6
2023-04-09T20:27:24.185Z,4.5
2023-04-09T20:28:26.233Z,4.5
2023-04-09T20:29:28.197Z,4.5
2023-04-09T20:30:30.194Z,4.5
2023-04-09T20:31:46.608Z,4.4
2023-04-09T20:32:34.264Z,4.4
2023-04-09T20:33:36.196Z,4.4
2023-04-09T20:34:38.196Z,4.3
2023-04-09T20:37:31.266Z,4.2
2023-04-09T20:38:31.240Z,4.2
2023-04-09T20:40:51.213Z,4.2
2023-04-09T20:41:53.209Z,4.1
2023-04-09T20:42:55.219Z,4.1
2023-04-09T20:43:57.197Z,4.1
2023-04-09T20:45:01.351Z,4.1
2023-04-09T20:46:31.260Z,4
2023-04-09T20:48:31.248Z,4
2023-04-09T20:50:10.228Z,4
2023-04-09T20:51:13.210Z,4
2023-04-09T20:52:15.225Z,4
2023-04-09T20:53:17.237Z,3.9
2023-04-09T20:54:19.200Z,3.9
2023-04-09T20:55:31.250Z,3.9
2023-04-09T20:56:31.268Z,3.9
2023-04-09T20:59:31.383Z,3.8
2023-04-09T21:00:33.188Z,3.8
2023-04-09T21:01:35.320Z,3.8
2023-04-09T21:02:37.274Z,3.8
2023-04-09T21:09:01.885Z,3.7
2023-04-09T21:10:04.884Z,3.7
2023-04-09T21:11:06.873Z,3.6
2023-04-09T21:12:31.265Z,3.5
2023-04-09T21:14:12.961Z,3.5
2023-04-09T21:15:15.931Z,3.5
2023-04-09T21:16:18.966Z,3.4
2023-04-09T21:17:21.892Z,3.4
2023-04-09T21:18:23.900Z,3.4
2023-04-09T21:21:29.902Z,3.4
2023-04-09T21:22:31.900Z,3.3
2023-04-09T21:25:37.949Z,3.3
2023-04-09T21:26:52.656Z,3.3
2023-04-09T21:27:42.888Z,3.2
2023-04-09T21:32:31.366Z,3.2
2023-04-09T21:34:43.802Z,3.2
2023-04-09T21:35:31.400Z,3.1
2023-04-09T21:37:52.456Z,3.1
2023-04-09T21:38:54.638Z,3.1
2023-04-09T21:45:06.881Z,3
2023-04-09T21:46:31.355Z,3
2023-04-09T21:49:28.675Z,3
2023-04-09T21:50:17.473Z,2.9
2023-04-09T21:51:19.456Z,2.9
2023-04-09T21:52:21.460Z,2.9
2023-04-09T21:53:23.464Z,2.9
2023-04-09T21:54:25.466Z,2.9
2023-04-09T21:55:27.462Z,2.9
2023-04-09T21:56:29.486Z,2.8
2023-04-09T21:57:31.652Z,2.8
2023-04-09T21:58:33.507Z,2.7
2023-04-09T21:59:35.470Z,2.7
2023-04-09T22:00:37.470Z,2.7
2023-04-09T22:01:39.567Z,2.7
2023-04-09T22:03:51.003Z,2.7
2023-04-09T22:04:53.038Z,2.6
2023-04-09T22:05:54.996Z,2.6
2023-04-09T22:06:57.075Z,2.6
2023-04-09T22:09:01.294Z,2.6
2023-04-09T22:10:16.679Z,2.6
2023-04-09T22:11:04.989Z,2.6
2023-04-09T22:13:09.036Z,2.5
2023-04-09T22:15:13.058Z,2.5
2023-04-09T22:16:15.269Z,2.5
2023-04-09T22:17:17.056Z,2.5
2023-04-09T22:18:19.040Z,2.5
2023-04-09T22:23:31.371Z,2.4
2023-04-09T22:24:32.685Z,2.4
2023-04-09T22:25:34.714Z,2.3
2023-04-09T22:27:41.095Z,2.3
2023-04-09T22:28:43.048Z,2.3
2023-04-09T22:29:45.042Z,2.3
2023-04-09T22:30:47.081Z,2.3
2023-04-09T22:31:49.054Z,2.3
2023-04-09T22:32:51.070Z,2.2
2023-04-09T22:34:55.044Z,2.2
2023-04-09T22:35:57.102Z,2.2
2023-04-09T22:36:59.060Z,2.2
2023-04-09T22:38:01.083Z,2.2
2023-04-09T22:39:03.057Z,2.2
2023-04-09T22:40:05.061Z,2.2
2023-04-09T22:41:07.065Z,2.2
2023-04-09T22:42:09.087Z,2.2
2023-04-09T22:43:11.081Z,2.2
2023-04-09T22:44:13.062Z,2.1
2023-04-09T22:45:15.072Z,2.1
2023-04-09T22:46:17.066Z,2.1
2023-04-09T22:47:19.151Z,2.1
2023-04-09T22:48:40.665Z,2.1
2023-04-09T22:50:25.070Z,2.1
2023-04-09T22:51:27.090Z,2
2023-04-09T22:53:31.061Z,2
2023-04-09T22:54:33.084Z,2
2023-04-09T22:55:35.073Z,2
2023-04-09T22:57:39.116Z,2
2023-04-09T22:58:41.069Z,1.9
2023-04-09T22:59:43.066Z,1.9
2023-04-09T23:00:45.054Z,1.9
2023-04-09T23:01:47.191Z,1.9
2023-04-09T23:05:07.453Z,1.9
2023-04-09T23:07:12.729Z,1.8
2023-04-09T23:08:14.736Z,1.8
2023-04-09T23:09:17.720Z,1.8
2023-04-09T23:10:20.749Z,1.8
2023-04-09T23:11:24.745Z,1.8
2023-04-09T23:12:26.727Z,1.8
2023-04-09T23:17:21.090Z,1.7
2023-04-09T23:18:23.042Z,1.7
2023-04-09T23:19:25.033Z,1.7
2023-04-09T23:21:29.065Z,1.7
2023-04-09T23:22:31.040Z,1.7
2023-04-09T23:25:52.711Z,1.7
2023-04-09T23:27:58.731Z,1.7
2023-04-09T23:29:48.628Z,1.6
2023-04-09T23:30:50.640Z,1.6
2023-04-09T23:34:31.389Z,1.5
2023-04-09T23:39:51.402Z,1.5
2023-04-09T23:42:45.675Z,1.4
2023-04-09T23:49:18.426Z,1.3
2023-04-09T23:50:20.403Z,1.2
